Time;durP1;ratioP1;P1;durP2;ratioP2;P2;SDS_P1;SDS_P2;PMS_P1;PMS_P2;Temp;Humidity;BMP_temperature;BMP_pressure;BME280_temperature;BME280_humidity;BME280_pressure;Samples;Min_cycle;Max_cycle;Signal;HPM_P1;HPM_P2
2023/09/07 00:02:15;;;;;;;3.40;2.20;;;;;;;16.41;100.00;100743.86;110055;1274;99461;-56
2023/09/07 00:04:52;;;;;;;3.30;2.30;;;;;;;16.36;100.00;100741.52;110159;1273;22321;-56
2023/09/07 00:07:21;;;;;;;3.80;2.20;;;;;;;16.28;100.00;100745.78;109977;1273;100203;-56
2023/09/07 00:09:50;;;;;;;3.10;1.90;;;;;;;16.23;100.00;100746.43;110119;1273;22340;-57
2023/09/07 00:12:18;;;;;;;3.40;2.10;;;;;;;16.18;100.00;100743.70;110101;1273;22286;-56
2023/09/07 00:14:47;;;;;;;4.10;2.10;;;;;;;16.09;100.00;100746.48;110101;1274;99464;-57
2023/09/07 00:17:15;;;;;;;3.90;2.40;;;;;;;15.97;100.00;100744.33;110092;1273;23571;-57
2023/09/07 00:19:46;;;;;;;2.50;2.00;;;;;;;15.83;100.00;100748.20;110011;1273;99551;-56
2023/09/07 00:22:16;;;;;;;3.10;2.50;;;;;;;15.75;100.00;100751.79;110093;1273;22295;-56
2023/09/07 00:24:46;;;;;;;2.70;2.00;;;;;;;15.67;100.00;100746.38;110121;1273;22345;-56
2023/09/07 00:27:14;;;;;;;7.70;2.00;;;;;;;15.60;100.00;100744.48;109997;1273;99469;-57
2023/09/07 00:29:43;;;;;;;2.10;1.90;;;;;;;15.55;100.00;100742.09;110089;1275;22211;-56
2023/09/07 00:32:11;;;;;;;3.20;2.00;;;;;;;15.51;100.00;100742.65;109962;1273;99636;-57
2023/09/07 00:37:40;;;;;;;3.10;1.90;;;;;;;15.42;100.00;100745.02;106716;1264;101012;-56
2023/09/07 00:40:09;;;;;;;1.60;1.50;;;;;;;15.36;100.00;100744.27;110006;1273;22320;-57
2023/09/07 00:42:38;;;;;;;2.30;1.60;;;;;;;15.31;100.00;100744.73;110097;1273;98510;-56
2023/09/07 00:45:07;;;;;;;1.60;1.50;;;;;;;15.29;100.00;100746.76;110068;1274;22360;-56
2023/09/07 00:47:36;;;;;;;2.60;1.80;;;;;;;15.33;100.00;100744.25;110051;1273;23130;-57
2023/09/07 00:50:06;;;;;;;2.30;2.00;;;;;;;15.45;100.00;100743.81;109972;1274;99758;-56
2023/09/07 00:52:39;;;;;;;2.40;2.00;;;;;;;15.58;100.00;100744.20;110047;1274;22262;-57
2023/09/07 00:55:09;;;;;;;2.50;1.90;;;;;;;15.69;100.00;100745.60;109947;1273;100156;-57
2023/09/07 00:57:42;;;;;;;6.40;2.80;;;;;;;15.81;100.00;100743.92;110123;1273;22969;-56
2023/09/07 01:00:11;;;;;;;2.90;2.40;;;;;;;15.89;100.00;100745.61;109965;1273;100214;-57
2023/09/07 01:02:42;;;;;;;5.60;2.80;;;;;;;15.95;100.00;100747.08;110130;1273;23069;-57
2023/09/07 01:05:11;;;;;;;4.20;1.90;;;;;;;16.01;100.00;100747.09;110080;1274;23126;-56
2023/09/07 01:08:02;;;;;;;3.70;2.70;;;;;;;16.09;100.00;100748.40;109926;1273;100027;-56
2023/09/07 01:10:32;;;;;;;2.80;2.10;;;;;;;16.19;100.00;100750.32;110145;1273;22197;-56
2023/09/07 01:13:00;;;;;;;3.90;2.30;;;;;;;16.24;100.00;100753.39;109961;1273;99441;-57
2023/09/07 01:15:29;;;;;;;3.10;2.00;;;;;;;16.30;100.00;100752.38;110053;1273;22999;-57
2023/09/07 01:17:59;;;;;;;6.00;3.00;;;;;;;16.33;100.00;100751.64;109961;1273;99709;-57
2023/09/07 01:20:49;;;;;;;2.90;1.90;;;;;;;16.36;100.00;100751.69;110090;1273;22159;-56
2023/09/07 01:23:18;;;;;;;3.40;2.70;;;;;;;16.39;100.00;100751.02;110009;1273;22351;-57
2023/09/07 01:25:48;;;;;;;5.00;3.00;;;;;;;16.42;100.00;100751.35;109961;1274;99686;-57
2023/09/07 01:28:21;;;;;;;4.30;2.60;;;;;;;16.44;100.00;100754.09;110002;1273;22149;-56
2023/09/07 01:30:52;;;;;;;3.80;2.40;;;;;;;16.40;100.00;100754.27;109953;1273;99460;-56
2023/09/07 01:33:21;;;;;;;2.60;2.30;;;;;;;16.41;100.00;100756.70;110058;1273;22150;-56
2023/09/07 01:35:50;;;;;;;3.40;2.40;;;;;;;16.47;100.00;100757.59;109921;1274;99541;-56
2023/09/07 01:38:19;;;;;;;5.40;2.70;;;;;;;16.53;100.00;100762.69;110033;1273;22374;-57
2023/09/07 01:40:47;;;;;;;5.00;2.70;;;;;;;16.57;100.00;100763.20;109994;1273;22151;-57
2023/09/07 01:43:16;;;;;;;5.80;2.80;;;;;;;16.66;100.00;100765.15;109919;1273;99489;-56
2023/09/07 01:45:44;;;;;;;4.60;2.70;;;;;;;16.72;100.00;100766.35;110024;1274;22281;-57
2023/09/07 01:48:14;;;;;;;2.50;1.80;;;;;;;16.79;100.00;100763.90;109904;1274;99706;-57
2023/09/07 01:50:42;;;;;;;3.30;2.30;;;;;;;16.86;100.00;100763.54;110044;1274;22447;-56
2023/09/07 01:53:13;;;;;;;3.80;2.60;;;;;;;16.90;100.00;100763.48;110123;1274;23091;-57
2023/09/07 01:55:42;;;;;;;5.80;2.80;;;;;;;16.94;100.00;100762.71;110008;1273;99974;-56
2023/09/07 01:58:10;;;;;;;2.70;2.40;;;;;;;16.97;100.00;100757.95;110124;1273;22178;-56
2023/09/07 02:00:39;;;;;;;4.60;3.60;;;;;;;17.01;100.00;100758.25;110030;1273;100034;-57
2023/09/07 02:03:08;;;;;;;5.30;3.30;;;;;;;17.02;100.00;100757.86;110033;1274;22272;-56
2023/09/07 02:05:36;;;;;;;5.70;3.50;;;;;;;17.05;100.00;100759.97;110059;1273;23129;-57
2023/09/07 02:08:05;;;;;;;2.90;2.60;;;;;;;17.08;100.00;100759.42;109925;1273;99316;-56
2023/09/07 02:10:34;;;;;;;3.50;2.50;;;;;;;17.08;100.00;100758.37;110033;1273;22191;-57
2023/09/07 02:13:03;;;;;;;3.60;2.90;;;;;;;17.12;100.00;100757.98;110001;1273;99754;-57
2023/09/07 02:15:33;;;;;;;2.80;2.40;;;;;;;17.15;100.00;100756.39;109985;1273;22859;-56
2023/09/07 02:18:04;;;;;;;3.70;2.60;;;;;;;17.17;100.00;100763.98;109906;1274;100131;-56
2023/09/07 02:20:33;;;;;;;3.20;2.60;;;;;;;17.19;100.00;100764.95;109946;1276;22297;-57
2023/09/07 02:23:02;;;;;;;4.00;3.00;;;;;;;17.20;100.00;100763.98;110116;1273;22347;-56
2023/09/07 02:25:31;;;;;;;3.00;2.10;;;;;;;17.22;100.00;100764.09;110005;1273;99895;-57
2023/09/07 02:27:59;;;;;;;3.60;2.70;;;;;;;17.23;100.00;100766.48;110025;1269;23588;-56
2023/09/07 02:30:28;;;;;;;3.60;2.30;;;;;;;17.26;100.00;100764.91;109898;1274;100174;-57
2023/09/07 02:32:57;;;;;;;3.40;2.60;;;;;;;17.26;100.00;100766.36;109985;1273;22368;-56
2023/09/07 02:35:26;;;;;;;2.70;2.00;;;;;;;17.22;100.00;100761.94;110037;1274;22297;-56
2023/09/07 02:37:54;;;;;;;3.10;2.60;;;;;;;17.14;100.00;100758.17;109916;1272;99479;-56
2023/09/07 02:40:23;;;;;;;3.70;2.50;;;;;;;17.00;100.00;100761.47;109978;1277;23029;-57
2023/09/07 02:42:52;;;;;;;2.80;2.30;;;;;;;16.88;100.00;100760.06;109935;1271;100202;-56
2023/09/07 02:45:21;;;;;;;5.40;3.40;;;;;;;16.80;100.00;100760.88;109977;1273;22495;-56
2023/09/07 02:47:52;;;;;;;5.10;3.20;;;;;;;16.70;100.00;100759.27;109887;1273;99644;-56
2023/09/07 02:50:20;;;;;;;3.70;2.70;;;;;;;16.65;100.00;100757.80;110022;1274;22337;-56
2023/09/07 02:52:49;;;;;;;3.60;2.90;;;;;;;16.60;100.00;100753.54;110031;1274;22399;-57
2023/09/07 02:55:18;;;;;;;3.10;2.40;;;;;;;16.56;100.00;100755.17;109892;1273;100027;-57
2023/09/07 02:57:46;;;;;;;3.50;3.10;;;;;;;16.53;100.00;100757.61;109987;1275;23031;-56
2023/09/07 03:00:17;;;;;;;3.00;2.60;;;;;;;16.49;100.00;100755.73;109937;1275;99634;-57
2023/09/07 03:02:46;;;;;;;5.20;2.70;;;;;;;16.49;100.00;100753.98;110048;1274;23049;-57
2023/09/07 03:05:16;;;;;;;3.00;2.70;;;;;;;16.39;100.00;100747.86;109999;1272;24111;-57
2023/09/07 03:07:46;;;;;;;5.10;3.20;;;;;;;16.27;100.00;100746.37;109922;1274;100731;-56
2023/09/07 03:10:15;;;;;;;6.80;2.60;;;;;;;16.17;100.00;100753.41;110042;1275;22404;-57
2023/09/07 03:12:44;;;;;;;3.70;3.00;;;;;;;16.02;100.00;100749.13;109838;1276;99779;-56
2023/09/07 03:15:13;;;;;;;4.90;3.50;;;;;;;15.95;100.00;100748.50;110137;1274;22153;-56
2023/09/07 03:17:41;;;;;;;5.80;3.60;;;;;;;15.87;100.00;100749.55;110004;1276;22323;-57
2023/09/07 03:20:14;;;;;;;4.70;2.80;;;;;;;15.80;100.00;100754.30;109903;1277;99911;-57
2023/09/07 03:22:46;;;;;;;3.20;2.60;;;;;;;15.72;100.00;100749.85;109975;1274;22211;-57
2023/09/07 03:25:16;;;;;;;4.30;2.90;;;;;;;15.67;100.00;100752.02;109994;1273;100010;-58
2023/09/07 03:27:44;;;;;;;4.70;3.10;;;;;;;15.64;100.00;100751.65;110031;1273;22867;-57
2023/09/07 03:30:13;;;;;;;4.30;3.10;;;;;;;15.60;100.00;100753.43;109972;1273;99934;-57
2023/09/07 03:32:42;;;;;;;3.50;2.70;;;;;;;15.54;100.00;100755.30;110075;1273;22347;-57
2023/09/07 03:35:11;;;;;;;3.90;3.20;;;;;;;15.45;100.00;100760.52;109998;1273;22338;-57
2023/09/07 03:37:42;;;;;;;4.10;3.10;;;;;;;15.39;100.00;100758.71;109922;1274;99468;-58
2023/09/07 03:40:11;;;;;;;3.10;2.60;;;;;;;15.35;100.00;100761.69;110077;1273;22281;-57
2023/09/07 03:42:40;;;;;;;3.80;3.10;;;;;;;15.34;100.00;100763.54;109930;1273;99486;-57
2023/09/07 03:45:09;;;;;;;3.70;2.80;;;;;;;15.32;100.00;100763.81;110013;1273;23649;-57
2023/09/07 03:47:39;;;;;;;3.60;2.80;;;;;;;15.29;100.00;100762.74;109996;1273;22370;-57
2023/09/07 03:50:08;;;;;;;7.00;3.20;;;;;;;15.27;100.00;100765.61;109902;1273;99780;-57
2023/09/07 03:52:37;;;;;;;4.00;3.10;;;;;;;15.26;100.00;100757.77;110013;1257;22377;-57
2023/09/07 03:55:07;;;;;;;3.70;3.10;;;;;;;15.25;100.00;100757.30;109919;1273;101317;-57
2023/09/07 03:57:35;;;;;;;4.20;2.90;;;;;;;15.26;100.00;100756.18;109961;1273;22426;-57
2023/09/07 04:00:08;;;;;;;3.50;2.90;;;;;;;15.24;100.00;100759.27;109871;1273;100079;-57
2023/09/07 04:02:37;;;;;;;5.90;3.00;;;;;;;15.19;100.00;100758.86;110014;1277;23057;-57
2023/09/07 04:05:06;;;;;;;3.50;2.80;;;;;;;15.13;100.00;100755.47;109955;1274;22278;-57
2023/09/07 04:07:36;;;;;;;4.40;2.90;;;;;;;15.09;100.00;100757.08;109943;1272;99492;-57
2023/09/07 04:10:06;;;;;;;3.40;2.70;;;;;;;15.06;100.00;100755.45;109971;1273;23137;-57
2023/09/07 04:12:34;;;;;;;3.40;2.70;;;;;;;15.06;100.00;100756.16;109949;1273;101035;-57
2023/09/07 04:15:04;;;;;;;2.00;1.70;;;;;;;15.09;100.00;100758.96;110024;1273;22125;-57
2023/09/07 04:17:40;;;;;;;4.10;3.20;;;;;;;15.15;100.00;100760.99;110016;1274;22295;-57
2023/09/07 04:20:13;;;;;;;3.00;2.60;;;;;;;15.19;100.00;100768.33;109917;1268;99246;-57
2023/09/07 04:22:41;;;;;;;7.00;3.40;;;;;;;15.26;100.00;100764.80;109992;1278;22925;-56
2023/09/07 04:25:10;;;;;;;3.70;2.80;;;;;;;15.37;100.00;100759.70;109907;1273;99584;-57
2023/09/07 04:27:39;;;;;;;3.90;2.70;;;;;;;15.48;100.00;100760.02;110004;1274;22377;-57
2023/09/07 04:30:11;;;;;;;3.60;2.70;;;;;;;15.58;100.00;100763.39;109952;1273;99688;-57
2023/09/07 04:32:39;;;;;;;3.90;3.00;;;;;;;15.67;100.00;100766.58;109996;1273;22363;-57
2023/09/07 04:35:08;;;;;;;6.00;3.40;;;;;;;15.77;100.00;100762.94;110015;1273;22414;-57
2023/09/07 04:37:37;;;;;;;4.60;3.40;;;;;;;15.87;100.00;100768.73;109995;1273;100888;-57
2023/09/07 04:40:06;;;;;;;5.50;3.90;;;;;;;15.93;100.00;100770.86;110059;1274;22089;-57
2023/09/07 04:42:35;;;;;;;5.30;3.60;;;;;;;16.00;100.00;100775.77;109960;1274;99878;-57
2023/09/07 04:45:06;;;;;;;7.20;4.30;;;;;;;16.05;100.00;100777.45;110130;1274;22924;-56
2023/09/07 04:47:34;;;;;;;5.60;3.90;;;;;;;16.08;100.00;100777.81;110111;1274;22975;-55
2023/09/07 04:50:04;;;;;;;3.90;3.10;;;;;;;16.10;100.00;100778.40;109996;1274;101044;-55
2023/09/07 04:52:34;;;;;;;4.90;3.60;;;;;;;16.14;100.00;100780.29;110144;1274;23527;-55
2023/09/07 04:55:04;;;;;;;4.10;3.30;;;;;;;16.21;100.00;100784.11;110073;1273;100236;-55
2023/09/07 04:57:32;;;;;;;4.30;3.90;;;;;;;16.24;100.00;100784.27;110011;1274;22153;-55
2023/09/07 05:00:03;;;;;;;5.40;3.30;;;;;;;16.28;100.00;100785.30;110054;1266;100038;-55
2023/09/07 05:02:32;;;;;;;4.70;3.20;;;;;;;16.34;100.00;100786.73;109950;1273;22176;-55
2023/09/07 05:05:06;;;;;;;3.10;2.70;;;;;;;16.40;100.00;100788.19;109941;1274;22880;-57
2023/09/07 05:07:35;;;;;;;4.40;2.80;;;;;;;16.41;100.00;100792.73;109926;1273;99902;-56
2023/09/07 05:10:06;;;;;;;4.80;2.90;;;;;;;16.47;100.00;100795.89;110097;1273;22133;-55
2023/09/07 05:12:35;;;;;;;4.20;3.20;;;;;;;16.49;100.00;100792.27;109940;1273;100064;-55
2023/09/07 05:15:06;;;;;;;3.70;2.90;;;;;;;16.54;100.00;100793.23;110134;1273;22229;-56
2023/09/07 05:17:35;;;;;;;3.30;2.90;;;;;;;16.59;100.00;100792.23;110110;1273;22114;-54
2023/09/07 05:20:05;;;;;;;3.40;2.80;;;;;;;16.63;100.00;100791.13;110003;1274;99292;-55
2023/09/07 05:22:36;;;;;;;5.60;3.00;;;;;;;16.66;100.00;100795.90;110059;1274;22267;-55
2023/09/07 05:25:05;;;;;;;4.50;3.60;;;;;;;16.73;100.00;100796.56;110066;1273;99953;-55
2023/09/07 05:27:35;;;;;;;2.90;2.60;;;;;;;16.81;100.00;100795.98;110144;1273;22742;-55
2023/09/07 05:30:06;;;;;;;5.30;3.00;;;;;;;16.94;100.00;100794.23;110010;1275;99573;-57
2023/09/07 05:32:34;;;;;;;4.20;3.10;;;;;;;17.01;100.00;100800.13;110036;1273;23098;-57
2023/09/07 05:35:04;;;;;;;4.20;3.60;;;;;;;17.05;100.00;100800.08;110079;1272;22132;-57
2023/09/07 05:37:32;;;;;;;2.50;2.10;;;;;;;17.18;100.00;100798.96;110051;1273;100479;-57
2023/09/07 05:40:03;;;;;;;2.50;2.30;;;;;;;17.31;100.00;100804.05;110045;1273;22358;-57
2023/09/07 05:42:32;;;;;;;4.60;2.90;;;;;;;17.30;100.00;100805.14;109970;1272;100289;-58
2023/09/07 05:45:00;;;;;;;2.90;2.30;;;;;;;17.31;100.00;100805.12;110172;1262;22198;-56
2023/09/07 05:47:30;;;;;;;3.20;2.30;;;;;;;17.34;100.00;100806.33;110065;1275;22292;-57
2023/09/07 05:50:02;;;;;;;3.00;2.00;;;;;;;17.39;100.00;100810.95;109895;1274;99536;-57
2023/09/07 05:52:31;;;;;;;3.50;2.30;;;;;;;17.43;100.00;100808.08;110051;1275;22275;-57
2023/09/07 05:54:59;;;;;;;3.40;2.40;;;;;;;17.43;100.00;100805.27;110067;1273;100208;-56
2023/09/07 05:57:28;;;;;;;3.80;2.40;;;;;;;17.49;100.00;100806.48;110122;1273;23158;-57
2023/09/07 05:59:57;;;;;;;3.60;2.60;;;;;;;17.57;100.00;100808.12;109987;1272;101341;-56
2023/09/07 06:02:26;;;;;;;2.70;2.30;;;;;;;17.63;100.00;100813.59;110150;1273;22364;-56
2023/09/07 06:04:58;;;;;;;3.70;1.80;;;;;;;17.71;100.00;100812.09;109848;1273;268637;-56
2023/09/07 06:07:27;;;;;;;3.20;2.40;;;;;;;17.79;100.00;100815.13;110072;1273;99744;-56
2023/09/07 06:09:58;;;;;;;4.50;2.40;;;;;;;17.82;100.00;100817.77;110138;1274;22289;-56
2023/09/07 06:12:27;;;;;;;2.50;1.70;;;;;;;17.90;100.00;100813.05;110019;1272;100283;-56
2023/09/07 06:14:55;;;;;;;2.80;1.80;;;;;;;17.97;100.00;100811.21;110169;1275;22332;-56
2023/09/07 06:17:24;;;;;;;2.20;1.30;;;;;;;18.03;100.00;100811.92;110026;1275;22905;-56
2023/09/07 06:19:53;;;;;;;2.60;2.40;;;;;;;18.08;100.00;100814.77;110084;1273;99476;-56
2023/09/07 06:22:24;;;;;;;2.30;1.60;;;;;;;18.09;100.00;100816.29;110150;1264;22299;-56
2023/09/07 06:24:53;;;;;;;2.40;1.80;;;;;;;18.14;100.00;100820.27;109972;1274;100203;-56
2023/09/07 06:27:22;;;;;;;3.10;2.00;;;;;;;18.16;100.00;100823.15;110153;1274;22285;-56
2023/09/07 06:29:50;;;;;;;4.50;1.80;;;;;;;18.19;100.00;100823.50;110059;1269;99544;-56
2023/09/07 06:32:19;;;;;;;2.90;2.20;;;;;;;18.28;100.00;100822.21;110182;1273;22134;-56
2023/09/07 06:34:47;;;;;;;2.90;1.70;;;;;;;18.32;100.00;100829.91;110094;1275;22160;-56
2023/09/07 06:37:17;;;;;;;3.20;2.30;;;;;;;18.37;100.00;100831.70;110066;1271;101166;-56
2023/09/07 06:39:46;;;;;;;1.60;1.50;;;;;;;18.48;100.00;100838.74;110084;1274;22311;-58
2023/09/07 06:42:15;;;;;;;3.60;1.70;;;;;;;18.58;100.00;100840.93;110078;1274;100993;-56
2023/09/07 06:44:45;;;;;;;2.30;1.60;;;;;;;18.64;100.00;100842.01;110143;1274;22950;-56
2023/09/07 06:47:13;;;;;;;3.60;2.00;;;;;;;18.80;100.00;100845.60;110084;1273;23219;-56
2023/09/07 06:49:42;;;;;;;2.30;1.60;;;;;;;18.87;100.00;100841.77;110056;1273;99885;-56
2023/09/07 06:52:10;;;;;;;3.10;1.70;;;;;;;18.96;100.00;100842.61;110096;1273;22207;-54
2023/09/07 06:54:39;;;;;;;2.50;1.60;;;;;;;19.01;100.00;100839.45;110046;1272;100178;-55
2023/09/07 06:57:10;;;;;;;2.10;1.20;;;;;;;19.22;100.00;100843.74;110057;1273;22276;-57
2023/09/07 07:00:24;;;;;;;2.80;1.40;;;;;;;19.40;100.00;100842.20;109815;1273;100082;-57
2023/09/07 07:02:58;;;;;;;3.10;1.50;;;;;;;19.54;100.00;100843.06;109986;1274;22280;-57
2023/09/07 07:05:46;;;;;;;2.80;1.70;;;;;;;19.57;100.00;100839.70;109924;1275;23210;-56
2023/09/07 07:08:18;;;;;;;4.20;1.60;;;;;;;19.55;100.00;100841.73;110113;1272;22367;-56
2023/09/07 07:10:53;;;;;;;2.50;1.60;;;;;;;19.62;100.00;100839.33;110127;1275;22467;-58
2023/09/07 07:13:21;;;;;;;2.40;1.70;;;;;;;19.81;100.00;100840.55;110087;1274;100101;-57
2023/09/07 07:15:50;;;;;;;3.00;1.80;;;;;;;19.66;100.00;100839.64;110140;1274;23482;-57
2023/09/07 07:18:18;;;;;;;4.80;1.80;;;;;;;19.59;100.00;100841.10;110064;1273;99881;-57
2023/09/07 07:20:47;;;;;;;2.90;2.00;;;;;;;19.54;100.00;100842.38;110167;1274;22147;-57
2023/09/07 07:23:15;;;;;;;2.70;1.60;;;;;;;19.54;100.00;100842.16;110123;1272;22336;-58
2023/09/07 07:25:44;;;;;;;2.40;1.60;;;;;;;19.90;100.00;100843.67;110059;1274;101633;-58
2023/09/07 07:28:13;;;;;;;4.30;1.90;;;;;;;20.32;100.00;100846.17;110146;1274;22330;-58
2023/09/07 07:30:42;;;;;;;1.80;1.40;;;;;;;20.71;100.00;100851.44;110047;1273;100039;-57
2023/09/07 07:33:14;;;;;;;1.70;1.40;;;;;;;21.10;100.00;100850.73;110170;1274;22123;-57
2023/09/07 07:35:42;;;;;;;2.00;1.70;;;;;;;21.49;100.00;100851.92;110094;1274;22280;-58
2023/09/07 07:38:15;;;;;;;6.60;1.50;;;;;;;21.44;100.00;100853.04;109987;1275;99733;-57
2023/09/07 07:40:46;;;;;;;3.90;1.50;;;;;;;21.27;100.00;100853.91;110054;1274;22931;-55
2023/09/07 07:43:14;;;;;;;3.60;1.60;;;;;;;21.46;100.00;100859.79;110075;1273;100125;-56
2023/09/07 07:45:43;;;;;;;1.20;1.10;;;;;;;21.34;100.00;100862.98;110142;1273;23319;-56
2023/09/07 07:48:12;;;;;;;3.80;1.60;;;;;;;21.74;100.00;100854.67;110069;1273;100621;-58
2023/09/07 07:50:41;;;;;;;2.70;1.50;;;;;;;22.13;100.00;100854.70;110122;1273;22369;-60
2023/09/07 07:53:10;;;;;;;4.00;1.30;;;;;;;22.29;100.00;100852.74;110088;1274;22967;-60
2023/09/07 07:55:40;;;;;;;1.80;1.30;;;;;;;22.40;100.00;100857.40;109986;1273;99641;-60
2023/09/07 07:58:09;;;;;;;3.50;1.50;;;;;;;22.88;100.00;100853.37;110169;1275;22256;-59
2023/09/07 08:00:40;;;;;;;2.40;1.50;;;;;;;24.48;100.00;100857.69;110073;1274;100820;-60
2023/09/07 08:03:09;;;;;;;3.10;1.20;;;;;;;24.54;98.05;100860.55;110147;1273;23012;-61
2023/09/07 08:05:39;;;;;;;1.90;0.80;;;;;;;24.45;98.61;100856.52;110172;1273;22270;-58
2023/09/07 08:08:08;;;;;;;3.20;1.30;;;;;;;26.46;100.00;100854.63;110060;1273;99205;-64
2023/09/07 08:10:37;;;;;;;2.30;1.40;;;;;;;28.59;99.21;100853.30;110103;1275;22961;-64
2023/09/07 08:13:07;;;;;;;1.40;1.20;;;;;;;29.12;96.37;100852.21;110108;1280;99971;-63
2023/09/07 08:15:36;;;;;;;1.30;1.10;;;;;;;29.85;95.75;100848.26;110151;1278;22174;-63
2023/09/07 08:18:04;;;;;;;3.20;1.30;;;;;;;31.11;93.74;100844.11;109975;1278;99513;-64
2023/09/07 08:20:33;;;;;;;4.30;1.30;;;;;;;31.65;87.24;100848.95;110092;1273;22097;-64
2023/09/07 08:23:07;;;;;;;1.40;0.70;;;;;;;31.03;82.78;100850.00;110156;1273;22343;-64
2023/09/07 08:25:35;;;;;;;1.30;0.80;;;;;;;30.72;80.30;100847.30;110082;1275;100439;-62
2023/09/07 08:28:05;;;;;;;1.90;0.80;;;;;;;31.80;85.78;100850.27;110129;1274;22133;-63
2023/09/07 08:30:35;;;;;;;1.10;0.80;;;;;;;34.28;85.63;100855.98;110089;1275;99538;-64
2023/09/07 08:33:06;;;;;;;1.30;0.60;;;;;;;35.13;75.11;100860.95;110149;1275;23067;-64
2023/09/07 08:35:37;;;;;;;1.90;1.00;;;;;;;35.13;73.35;100854.41;110110;1275;23052;-67
2023/09/07 08:38:08;;;;;;;1.40;0.80;;;;;;;35.84;72.99;100852.13;109941;1274;100149;-66
2023/09/07 08:40:40;;;;;;;1.60;0.90;;;;;;;36.76;70.27;100851.04;110092;1273;22327;-65
2023/09/07 08:43:11;;;;;;;0.70;0.70;;;;;;;36.11;63.47;100847.23;109967;1274;99940;-66
2023/09/07 08:45:50;;;;;;;1.50;1.00;;;;;;;35.69;61.14;100848.48;110001;1275;22304;-66
2023/09/07 08:48:20;;;;;;;3.70;0.70;;;;;;;35.51;54.97;100849.47;109996;1273;99785;-66
2023/09/07 08:50:50;;;;;;;2.00;0.90;;;;;;;34.21;46.40;100848.90;110157;1273;22228;-67
2023/09/07 08:53:22;;;;;;;1.00;0.90;;;;;;;33.72;48.16;100852.90;110141;1274;22290;-67
2023/09/07 08:55:51;;;;;;;2.00;1.10;;;;;;;34.86;46.17;100856.48;110061;1273;99901;-66
2023/09/07 08:58:20;;;;;;;1.50;0.60;;;;;;;34.48;43.63;100858.64;110127;1273;22316;-67
2023/09/07 09:00:49;;;;;;;1.00;0.60;;;;;;;35.14;44.42;100861.52;109991;1277;99514;-66
2023/09/07 09:03:18;;;;;;;4.30;1.00;;;;;;;35.76;44.08;100854.02;110066;1272;22308;-64
2023/09/07 09:05:51;;;;;;;1.60;0.70;;;;;;;36.25;43.94;100854.41;110079;1270;22333;-68
2023/09/07 09:08:24;;;;;;;1.60;0.80;;;;;;;36.32;41.93;100852.89;110001;1278;22942;-62
2023/09/07 09:11:27;;;;;;;0.90;0.70;;;;;;;36.10;40.33;100852.31;110084;1274;22345;-64
2023/09/07 09:13:56;;;;;;;1.60;1.20;;;;;;;35.56;38.55;100854.34;110021;1275;101117;-67
2023/09/07 09:16:25;;;;;;;1.00;0.40;;;;;;;33.75;37.18;100850.39;110117;1276;22382;-69
2023/09/07 09:18:59;;;;;;;1.10;0.70;;;;;;;32.93;37.92;100847.64;109993;1274;100495;-68
2023/09/07 09:21:28;;;;;;;1.10;0.60;;;;;;;33.21;38.68;100847.04;110060;1274;22242;-66
2023/09/07 09:23:57;;;;;;;1.00;0.80;;;;;;;33.38;38.91;100843.05;110025;1273;100194;-67
2023/09/07 09:26:26;;;;;;;0.90;0.70;;;;;;;34.36;38.75;100844.00;110086;1272;22272;-65
2023/09/07 09:29:00;;;;;;;1.40;0.80;;;;;;;35.12;38.53;100840.81;110119;1274;22398;-63
2023/09/07 09:31:29;;;;;;;0.90;0.80;;;;;;;36.61;38.73;100840.89;110002;1273;98898;-61
2023/09/07 09:33:58;;;;;;;2.90;0.90;;;;;;;38.43;38.26;100841.02;110112;1274;22293;-75
2023/09/07 09:36:34;;;;;;;1.10;0.70;;;;;;;39.03;35.25;100844.45;110037;1273;101065;-63
2023/09/07 09:39:05;;;;;;;1.70;0.80;;;;;;;39.11;34.05;100834.29;109953;1273;22399;-61
2023/09/07 09:41:34;;;;;;;2.70;0.70;;;;;;;39.72;33.59;100829.36;110088;1275;22182;-64
2023/09/07 09:44:07;;;;;;;1.10;0.60;;;;;;;39.29;31.49;100839.02;110020;1275;99837;-64
2023/09/07 09:46:37;;;;;;;1.20;0.70;;;;;;;39.77;31.88;100834.05;110063;1274;22987;-64
2023/09/07 09:49:08;;;;;;;0.90;0.60;;;;;;;40.80;31.25;100834.65;110010;1273;101995;-64
2023/09/07 09:51:39;;;;;;;1.00;0.60;;;;;;;40.06;29.66;100833.89;110167;1273;22293;-64
2023/09/07 09:54:12;;;;;;;1.30;0.80;;;;;;;38.92;29.28;100833.98;110049;1275;99912;-64
2023/09/07 09:56:41;;;;;;;0.70;0.50;;;;;;;37.22;29.09;100826.89;110179;1275;22230;-63
2023/09/07 09:59:09;;;;;;;0.70;0.50;;;;;;;36.90;30.25;100824.27;110177;1273;22223;-64
2023/09/07 10:01:44;;;;;;;1.90;0.70;;;;;;;37.51;29.59;100822.61;110106;1277;101452;-64
2023/09/07 10:04:16;;;;;;;1.30;0.60;;;;;;;36.67;29.93;100824.30;110174;1278;23444;-63
2023/09/07 10:07:01;;;;;;;1.50;0.80;;;;;;;37.85;30.54;100828.98;110095;1272;101041;-63
2023/09/07 10:09:32;;;;;;;1.50;0.80;;;;;;;39.80;31.11;100825.77;110145;1275;22997;-63
2023/09/07 10:12:04;;;;;;;0.60;0.60;;;;;;;41.51;30.32;100823.30;109993;1274;99386;-64
2023/09/07 10:14:41;;;;;;;0.70;0.60;;;;;;;42.66;29.67;100817.08;110048;1280;22361;-64
2023/09/07 10:17:09;;;;;;;1.00;0.80;;;;;;;43.99;29.01;100819.71;110170;1275;22285;-64
2023/09/07 10:19:39;;;;;;;1.10;0.80;;;;;;;44.07;26.93;100823.17;110013;1275;100012;-63
2023/09/07 10:22:08;;;;;;;1.00;0.70;;;;;;;41.91;25.57;100820.86;110172;1275;22108;-64
2023/09/07 10:24:38;;;;;;;1.50;0.60;;;;;;;39.99;26.11;100815.33;110041;1273;99826;-64
2023/09/07 10:27:10;;;;;;;1.50;0.70;;;;;;;39.97;25.89;100813.08;110174;1273;22341;-63
2023/09/07 10:29:43;;;;;;;1.00;0.60;;;;;;;37.78;25.99;100814.66;110154;1275;22134;-63
2023/09/07 10:32:14;;;;;;;0.70;0.50;;;;;;;38.57;27.08;100814.85;110110;1277;99709;-63
2023/09/07 10:34:47;;;;;;;1.80;0.70;;;;;;;40.00;27.25;100811.11;110168;1274;22856;-63
2023/09/07 10:37:15;;;;;;;1.50;0.70;;;;;;;40.93;26.74;100812.32;110011;1274;99908;-64
2023/09/07 10:39:45;;;;;;;1.50;0.80;;;;;;;41.53;26.32;100807.67;110174;1275;22982;-63
2023/09/07 10:42:21;;;;;;;0.60;0.60;;;;;;;42.37;26.23;100802.77;110099;1272;100353;-64
2023/09/07 10:44:50;;;;;;;0.60;0.60;;;;;;;42.82;24.80;100803.52;110142;1278;22316;-64
2023/09/07 10:47:19;;;;;;;1.20;0.90;;;;;;;42.20;24.62;100803.77;110162;1275;22265;-64
2023/09/07 10:49:47;;;;;;;1.20;1.00;;;;;;;42.63;24.02;100813.83;110107;1267;99335;-63
2023/09/07 10:52:16;;;;;;;1.00;0.90;;;;;;;42.68;24.01;100812.50;110194;1275;22271;-64
2023/09/07 10:54:45;;;;;;;2.70;0.80;;;;;;;42.73;23.67;100816.40;110029;1275;100044;-64
2023/09/07 10:57:14;;;;;;;1.20;0.80;;;;;;;43.04;23.39;100811.59;110182;1275;22132;-63
2023/09/07 10:59:46;;;;;;;1.10;1.00;;;;;;;42.96;23.27;100809.87;110165;1275;22370;-64
2023/09/07 11:02:15;;;;;;;1.40;1.00;;;;;;;43.73;23.49;100808.30;110065;1275;99200;-64
2023/09/07 11:04:44;;;;;;;1.10;1.00;;;;;;;44.21;23.12;100811.48;110040;1271;22289;-63
2023/09/07 11:07:13;;;;;;;3.60;1.50;;;;;;;44.32;22.41;100815.58;110034;1273;100977;-63
2023/09/07 11:09:45;;;;;;;1.00;1.00;;;;;;;44.42;22.62;100812.38;110152;1274;22134;-63
2023/09/07 11:12:15;;;;;;;1.20;1.10;;;;;;;44.81;22.35;100810.80;110082;1273;100495;-63
2023/09/07 11:14:48;;;;;;;1.80;1.70;;;;;;;45.06;22.03;100806.90;110091;1276;22375;-62
2023/09/07 11:17:29;;;;;;;1.90;1.80;;;;;;;44.83;21.15;100808.52;110063;1274;22449;-60
2023/09/07 11:19:58;;;;;;;1.40;1.00;;;;;;;44.21;20.98;100810.19;109986;1273;99872;-62
2023/09/07 11:22:26;;;;;;;1.40;1.10;;;;;;;42.35;21.50;100810.60;109984;1275;22265;-63
2023/09/07 11:24:56;;;;;;;1.30;1.20;;;;;;;42.83;22.05;100812.27;109928;1273;100296;-64
2023/09/07 11:27:26;;;;;;;4.40;1.60;;;;;;;43.31;21.94;100805.11;110019;1273;22159;-60